< < Back
Terminal Aerodrome Forecast


Current Version              Previous Versions:   1  2  3  4  5  6  7  8  9  

Terminal Aerodrome Forecast

971
FTUS42 KTAE 301500 AAA
TAFVLD
TAF AMD
KVLD 301534Z 3016/0112 02005KT P6SM OVC005
     FM301700 06005KT P6SM BKN010
     FM302000 04005KT P6SM BKN025
     FM302200 04005KT P6SM BKN035
     FM010300 09003KT P6SM FEW250
      TEMPO 0109/0112 4SM BR SCT004=



Latest METAR

641
SAUS70 KWBC 010600 RRX
MTRVLD
METAR KVLD 010553Z AUTO 00000KT 10SM OVC042 21/20 A2990 RMK AO2 SLP131
T02110200 10233 20206 55003


USA.gov is the U.S. government's official web portal to all federal, state and local government web resources and services.